sensor_id;sensor_type;location;lat;lon;timestamp;P1;durP1;ratioP1;P2;durP2;ratioP2
54561;SDS011;40456;53.358;-1.486;2022-11-06T00:01:28;13.50;;;7.93;;
54561;SDS011;40456;53.358;-1.486;2022-11-06T00:03:54;11.25;;;7.82;;
54561;SDS011;40456;53.358;-1.486;2022-11-06T00:06:19;10.57;;;7.38;;
54561;SDS011;40456;53.358;-1.486;2022-11-06T00:09:04;11.65;;;8.20;;
54561;SDS011;40456;53.358;-1.486;2022-11-06T00:11:31;15.13;;;8.40;;
54561;SDS011;40456;53.358;-1.486;2022-11-06T00:13:57;13.18;;;7.95;;
54561;SDS011;40456;53.358;-1.486;2022-11-06T00:16:24;13.45;;;8.13;;
54561;SDS011;40456;53.358;-1.486;2022-11-06T00:18:49;11.77;;;7.80;;
54561;SDS011;40456;53.358;-1.486;2022-11-06T00:21:16;15.23;;;7.20;;
54561;SDS011;40456;53.358;-1.486;2022-11-06T00:23:43;13.25;;;8.20;;
54561;SDS011;40456;53.358;-1.486;2022-11-06T00:26:10;13.90;;;8.32;;
54561;SDS011;40456;53.358;-1.486;2022-11-06T00:28:39;12.65;;;7.93;;
54561;SDS011;40456;53.358;-1.486;2022-11-06T00:31:07;11.65;;;7.85;;
54561;SDS011;40456;53.358;-1.486;2022-11-06T00:33:43;12.75;;;7.55;;
54561;SDS011;40456;53.358;-1.486;2022-11-06T00:36:11;11.38;;;7.68;;
54561;SDS011;40456;53.358;-1.486;2022-11-06T00:38:38;10.30;;;7.05;;
54561;SDS011;40456;53.358;-1.486;2022-11-06T00:41:04;12.98;;;7.75;;
54561;SDS011;40456;53.358;-1.486;2022-11-06T00:43:33;14.65;;;8.05;;
54561;SDS011;40456;53.358;-1.486;2022-11-06T00:46:03;13.07;;;7.60;;
54561;SDS011;40456;53.358;-1.486;2022-11-06T00:48:33;11.68;;;7.68;;
54561;SDS011;40456;53.358;-1.486;2022-11-06T00:51:02;13.50;;;7.78;;
54561;SDS011;40456;53.358;-1.486;2022-11-06T00:53:38;9.65;;;7.22;;
54561;SDS011;40456;53.358;-1.486;2022-11-06T00:58:29;12.27;;;8.07;;
54561;SDS011;40456;53.358;-1.486;2022-11-06T01:00:55;9.60;;;6.82;;
54561;SDS011;40456;53.358;-1.486;2022-11-06T01:03:20;9.68;;;7.00;;
54561;SDS011;40456;53.358;-1.486;2022-11-06T01:05:46;12.13;;;7.55;;
54561;SDS011;40456;53.358;-1.486;2022-11-06T01:08:11;12.10;;;7.00;;
54561;SDS011;40456;53.358;-1.486;2022-11-06T01:10:37;11.07;;;6.85;;
54561;SDS011;40456;53.358;-1.486;2022-11-06T01:13:03;12.48;;;7.07;;
54561;SDS011;40456;53.358;-1.486;2022-11-06T01:15:28;12.10;;;7.05;;
54561;SDS011;40456;53.358;-1.486;2022-11-06T01:17:54;9.98;;;6.68;;
54561;SDS011;40456;53.358;-1.486;2022-11-06T01:20:20;8.77;;;6.05;;
54561;SDS011;40456;53.358;-1.486;2022-11-06T01:22:46;11.40;;;6.82;;
54561;SDS011;40456;53.358;-1.486;2022-11-06T01:25:11;10.38;;;6.13;;
54561;SDS011;40456;53.358;-1.486;2022-11-06T01:27:36;10.02;;;6.00;;
54561;SDS011;40456;53.358;-1.486;2022-11-06T01:30:02;9.05;;;6.07;;
54561;SDS011;40456;53.358;-1.486;2022-11-06T01:32:28;10.98;;;6.43;;
54561;SDS011;40456;53.358;-1.486;2022-11-06T01:34:53;8.23;;;5.35;;
54561;SDS011;40456;53.358;-1.486;2022-11-06T01:37:19;10.57;;;5.68;;
54561;SDS011;40456;53.358;-1.486;2022-11-06T01:39:44;11.23;;;5.85;;
54561;SDS011;40456;53.358;-1.486;2022-11-06T01:42:11;9.55;;;5.75;;
54561;SDS011;40456;53.358;-1.486;2022-11-06T01:47:40;8.95;;;5.45;;
54561;SDS011;40456;53.358;-1.486;2022-11-06T01:50:00;9.93;;;5.55;;
54561;SDS011;40456;53.358;-1.486;2022-11-06T01:52:28;8.52;;;5.80;;
54561;SDS011;40456;53.358;-1.486;2022-11-06T01:54:56;9.50;;;6.05;;
54561;SDS011;40456;53.358;-1.486;2022-11-06T01:57:27;9.35;;;5.90;;
54561;SDS011;40456;53.358;-1.486;2022-11-06T01:59:53;10.68;;;5.90;;
54561;SDS011;40456;53.358;-1.486;2022-11-06T02:02:19;9.27;;;5.82;;
54561;SDS011;40456;53.358;-1.486;2022-11-06T02:04:45;10.40;;;6.03;;
54561;SDS011;40456;53.358;-1.486;2022-11-06T02:07:12;11.18;;;5.93;;
54561;SDS011;40456;53.358;-1.486;2022-11-06T02:09:38;10.05;;;5.43;;
54561;SDS011;40456;53.358;-1.486;2022-11-06T02:14:40;9.52;;;5.07;;
54561;SDS011;40456;53.358;-1.486;2022-11-06T02:20:02;8.57;;;5.28;;
54561;SDS011;40456;53.358;-1.486;2022-11-06T02:22:55;8.30;;;5.47;;
54561;SDS011;40456;53.358;-1.486;2022-11-06T02:25:57;8.07;;;5.15;;
54561;SDS011;40456;53.358;-1.486;2022-11-06T02:28:46;10.07;;;5.43;;
54561;SDS011;40456;53.358;-1.486;2022-11-06T02:31:16;8.73;;;5.57;;
54561;SDS011;40456;53.358;-1.486;2022-11-06T02:33:47;10.20;;;5.68;;
54561;SDS011;40456;53.358;-1.486;2022-11-06T02:36:18;6.72;;;4.88;;
54561;SDS011;40456;53.358;-1.486;2022-11-06T02:38:52;8.45;;;5.28;;
54561;SDS011;40456;53.358;-1.486;2022-11-06T02:41:21;7.82;;;4.93;;
54561;SDS011;40456;53.358;-1.486;2022-11-06T02:43:54;10.88;;;5.35;;
54561;SDS011;40456;53.358;-1.486;2022-11-06T02:46:33;9.88;;;5.13;;
54561;SDS011;40456;53.358;-1.486;2022-11-06T02:49:02;8.95;;;4.85;;
54561;SDS011;40456;53.358;-1.486;2022-11-06T02:51:33;9.68;;;4.55;;
54561;SDS011;40456;53.358;-1.486;2022-11-06T02:54:01;8.77;;;5.53;;
54561;SDS011;40456;53.358;-1.486;2022-11-06T02:56:31;9.57;;;5.82;;
54561;SDS011;40456;53.358;-1.486;2022-11-06T03:01:28;10.55;;;5.70;;
54561;SDS011;40456;53.358;-1.486;2022-11-06T03:03:59;8.32;;;4.43;;
54561;SDS011;40456;53.358;-1.486;2022-11-06T03:06:38;9.32;;;5.18;;
54561;SDS011;40456;53.358;-1.486;2022-11-06T03:09:11;7.78;;;4.32;;
54561;SDS011;40456;53.358;-1.486;2022-11-06T03:11:39;8.07;;;4.82;;
54561;SDS011;40456;53.358;-1.486;2022-11-06T03:14:10;6.55;;;4.57;;
54561;SDS011;40456;53.358;-1.486;2022-11-06T03:16:40;7.95;;;4.93;;
54561;SDS011;40456;53.358;-1.486;2022-11-06T03:24:34;11.27;;;5.80;;
54561;SDS011;40456;53.358;-1.486;2022-11-06T03:27:22;9.95;;;5.22;;
54561;SDS011;40456;53.358;-1.486;2022-11-06T03:29:56;8.60;;;4.68;;
54561;SDS011;40456;53.358;-1.486;2022-11-06T03:32:27;7.63;;;4.47;;
54561;SDS011;40456;53.358;-1.486;2022-11-06T03:35:19;7.63;;;5.03;;
54561;SDS011;40456;53.358;-1.486;2022-11-06T03:40:33;9.32;;;5.30;;
54561;SDS011;40456;53.358;-1.486;2022-11-06T03:43:01;5.40;;;4.00;;
54561;SDS011;40456;53.358;-1.486;2022-11-06T03:45:28;9.43;;;4.88;;
54561;SDS011;40456;53.358;-1.486;2022-11-06T03:50:25;7.35;;;4.40;;
54561;SDS011;40456;53.358;-1.486;2022-11-06T03:52:56;7.43;;;4.85;;
54561;SDS011;40456;53.358;-1.486;2022-11-06T03:55:25;10.57;;;5.18;;
54561;SDS011;40456;53.358;-1.486;2022-11-06T03:58:00;8.07;;;4.85;;
54561;SDS011;40456;53.358;-1.486;2022-11-06T04:00:31;7.80;;;5.00;;
54561;SDS011;40456;53.358;-1.486;2022-11-06T04:02:59;8.73;;;4.72;;
54561;SDS011;40456;53.358;-1.486;2022-11-06T04:05:30;11.20;;;5.13;;
54561;SDS011;40456;53.358;-1.486;2022-11-06T04:07:58;8.88;;;5.55;;
54561;SDS011;40456;53.358;-1.486;2022-11-06T04:10:42;11.93;;;5.68;;
54561;SDS011;40456;53.358;-1.486;2022-11-06T04:13:28;7.55;;;4.75;;
54561;SDS011;40456;53.358;-1.486;2022-11-06T04:16:14;9.05;;;5.57;;
54561;SDS011;40456;53.358;-1.486;2022-11-06T04:18:41;10.95;;;6.20;;
54561;SDS011;40456;53.358;-1.486;2022-11-06T04:26:35;7.38;;;4.95;;
54561;SDS011;40456;53.358;-1.486;2022-11-06T04:29:17;7.68;;;4.82;;
54561;SDS011;40456;53.358;-1.486;2022-11-06T04:37:31;7.75;;;5.38;;
54561;SDS011;40456;53.358;-1.486;2022-11-06T04:40:07;9.68;;;5.55;;
54561;SDS011;40456;53.358;-1.486;2022-11-06T04:42:48;8.10;;;4.75;;
54561;SDS011;40456;53.358;-1.486;2022-11-06T04:45:21;8.50;;;4.38;;
54561;SDS011;40456;53.358;-1.486;2022-11-06T04:47:49;8.82;;;4.45;;
54561;SDS011;40456;53.358;-1.486;2022-11-06T04:50:15;7.28;;;4.72;;
54561;SDS011;40456;53.358;-1.486;2022-11-06T04:52:42;6.95;;;4.45;;
54561;SDS011;40456;53.358;-1.486;2022-11-06T04:55:08;8.43;;;4.53;;
54561;SDS011;40456;53.358;-1.486;2022-11-06T04:57:34;8.30;;;4.80;;
54561;SDS011;40456;53.358;-1.486;2022-11-06T04:59:59;6.95;;;4.40;;
54561;SDS011;40456;53.358;-1.486;2022-11-06T05:02:25;7.80;;;4.57;;
54561;SDS011;40456;53.358;-1.486;2022-11-06T05:04:50;8.38;;;4.78;;
54561;SDS011;40456;53.358;-1.486;2022-11-06T05:07:15;9.15;;;4.75;;
54561;SDS011;40456;53.358;-1.486;2022-11-06T05:09:41;6.78;;;4.43;;
54561;SDS011;40456;53.358;-1.486;2022-11-06T05:12:07;6.28;;;4.50;;
54561;SDS011;40456;53.358;-1.486;2022-11-06T05:14:32;7.32;;;4.97;;
54561;SDS011;40456;53.358;-1.486;2022-11-06T05:16:58;9.57;;;5.50;;
54561;SDS011;40456;53.358;-1.486;2022-11-06T05:19:24;9.10;;;5.10;;
54561;SDS011;40456;53.358;-1.486;2022-11-06T05:21:49;9.88;;;5.10;;
54561;SDS011;40456;53.358;-1.486;2022-11-06T05:24:33;10.27;;;5.82;;
54561;SDS011;40456;53.358;-1.486;2022-11-06T05:26:59;8.27;;;5.25;;
54561;SDS011;40456;53.358;-1.486;2022-11-06T05:29:24;9.93;;;5.22;;
54561;SDS011;40456;53.358;-1.486;2022-11-06T05:31:49;9.43;;;5.57;;
54561;SDS011;40456;53.358;-1.486;2022-11-06T05:34:15;12.93;;;6.13;;
54561;SDS011;40456;53.358;-1.486;2022-11-06T05:36:40;10.52;;;5.10;;
54561;SDS011;40456;53.358;-1.486;2022-11-06T05:39:05;11.70;;;5.47;;
54561;SDS011;40456;53.358;-1.486;2022-11-06T05:41:31;9.05;;;5.28;;
54561;SDS011;40456;53.358;-1.486;2022-11-06T05:43:56;13.13;;;5.75;;
54561;SDS011;40456;53.358;-1.486;2022-11-06T05:46:22;9.40;;;5.72;;
54561;SDS011;40456;53.358;-1.486;2022-11-06T05:48:47;10.43;;;5.70;;
54561;SDS011;40456;53.358;-1.486;2022-11-06T05:51:13;8.02;;;5.47;;
54561;SDS011;40456;53.358;-1.486;2022-11-06T05:53:38;9.15;;;5.78;;
54561;SDS011;40456;53.358;-1.486;2022-11-06T05:56:04;9.20;;;5.68;;
54561;SDS011;40456;53.358;-1.486;2022-11-06T05:58:29;9.32;;;5.65;;
54561;SDS011;40456;53.358;-1.486;2022-11-06T06:00:55;11.50;;;6.25;;
54561;SDS011;40456;53.358;-1.486;2022-11-06T06:03:21;12.75;;;6.00;;
54561;SDS011;40456;53.358;-1.486;2022-11-06T06:05:47;9.68;;;6.03;;
54561;SDS011;40456;53.358;-1.486;2022-11-06T06:08:12;11.63;;;6.20;;
54561;SDS011;40456;53.358;-1.486;2022-11-06T06:10:44;8.95;;;5.30;;
54561;SDS011;40456;53.358;-1.486;2022-11-06T06:13:11;9.20;;;5.97;;
54561;SDS011;40456;53.358;-1.486;2022-11-06T06:15:37;10.02;;;6.63;;
54561;SDS011;40456;53.358;-1.486;2022-11-06T06:18:03;8.13;;;5.82;;
54561;SDS011;40456;53.358;-1.486;2022-11-06T06:20:29;10.30;;;6.72;;
54561;SDS011;40456;53.358;-1.486;2022-11-06T06:22:54;11.50;;;6.45;;
54561;SDS011;40456;53.358;-1.486;2022-11-06T06:25:20;9.75;;;5.65;;
54561;SDS011;40456;53.358;-1.486;2022-11-06T06:27:46;11.45;;;6.28;;
54561;SDS011;40456;53.358;-1.486;2022-11-06T06:30:11;10.45;;;6.05;;
54561;SDS011;40456;53.358;-1.486;2022-11-06T06:32:37;9.02;;;6.10;;
54561;SDS011;40456;53.358;-1.486;2022-11-06T06:35:02;9.85;;;6.00;;
54561;SDS011;40456;53.358;-1.486;2022-11-06T06:37:28;10.18;;;6.20;;
54561;SDS011;40456;53.358;-1.486;2022-11-06T06:39:53;9.73;;;6.35;;
54561;SDS011;40456;53.358;-1.486;2022-11-06T06:42:19;11.68;;;6.25;;
54561;SDS011;40456;53.358;-1.486;2022-11-06T06:44:44;11.27;;;6.47;;
54561;SDS011;40456;53.358;-1.486;2022-11-06T06:47:09;10.65;;;6.50;;
54561;SDS011;40456;53.358;-1.486;2022-11-06T06:49:35;9.50;;;5.65;;
54561;SDS011;40456;53.358;-1.486;2022-11-06T06:52:00;9.32;;;5.80;;
54561;SDS011;40456;53.358;-1.486;2022-11-06T06:54:25;8.85;;;6.03;;
54561;SDS011;40456;53.358;-1.486;2022-11-06T06:56:51;8.95;;;6.15;;
54561;SDS011;40456;53.358;-1.486;2022-11-06T06:59:16;11.63;;;6.28;;
54561;SDS011;40456;53.358;-1.486;2022-11-06T07:01:42;12.10;;;5.80;;
54561;SDS011;40456;53.358;-1.486;2022-11-06T07:04:07;8.77;;;5.63;;
54561;SDS011;40456;53.358;-1.486;2022-11-06T07:06:34;10.00;;;5.75;;
54561;SDS011;40456;53.358;-1.486;2022-11-06T07:08:59;11.10;;;6.63;;
54561;SDS011;40456;53.358;-1.486;2022-11-06T07:11:25;11.23;;;5.63;;
54561;SDS011;40456;53.358;-1.486;2022-11-06T07:13:50;10.23;;;6.45;;
54561;SDS011;40456;53.358;-1.486;2022-11-06T07:16:15;9.80;;;5.82;;
54561;SDS011;40456;53.358;-1.486;2022-11-06T07:18:41;8.73;;;5.80;;
54561;SDS011;40456;53.358;-1.486;2022-11-06T07:21:07;8.15;;;5.97;;
54561;SDS011;40456;53.358;-1.486;2022-11-06T07:23:34;8.73;;;5.93;;
54561;SDS011;40456;53.358;-1.486;2022-11-06T07:26:00;10.48;;;6.07;;
54561;SDS011;40456;53.358;-1.486;2022-11-06T07:28:26;10.52;;;6.28;;
54561;SDS011;40456;53.358;-1.486;2022-11-06T07:30:51;10.95;;;5.90;;
54561;SDS011;40456;53.358;-1.486;2022-11-06T07:33:17;10.60;;;5.55;;
54561;SDS011;40456;53.358;-1.486;2022-11-06T07:35:42;11.25;;;6.53;;
54561;SDS011;40456;53.358;-1.486;2022-11-06T07:38:08;10.77;;;5.80;;
54561;SDS011;40456;53.358;-1.486;2022-11-06T07:40:33;10.73;;;5.63;;
54561;SDS011;40456;53.358;-1.486;2022-11-06T07:43:04;8.63;;;5.47;;
54561;SDS011;40456;53.358;-1.486;2022-11-06T07:45:31;10.02;;;5.63;;
54561;SDS011;40456;53.358;-1.486;2022-11-06T07:47:56;11.55;;;5.38;;
54561;SDS011;40456;53.358;-1.486;2022-11-06T07:50:21;10.18;;;5.72;;
54561;SDS011;40456;53.358;-1.486;2022-11-06T07:52:47;8.15;;;5.47;;
54561;SDS011;40456;53.358;-1.486;2022-11-06T07:55:12;10.88;;;6.18;;
54561;SDS011;40456;53.358;-1.486;2022-11-06T07:57:38;8.93;;;4.68;;
54561;SDS011;40456;53.358;-1.486;2022-11-06T08:00:04;9.10;;;5.32;;
54561;SDS011;40456;53.358;-1.486;2022-11-06T08:02:30;9.70;;;5.32;;
54561;SDS011;40456;53.358;-1.486;2022-11-06T08:04:55;8.40;;;4.88;;
54561;SDS011;40456;53.358;-1.486;2022-11-06T08:07:21;8.65;;;5.03;;
54561;SDS011;40456;53.358;-1.486;2022-11-06T08:09:46;9.95;;;4.88;;
54561;SDS011;40456;53.358;-1.486;2022-11-06T08:12:11;9.70;;;5.28;;
54561;SDS011;40456;53.358;-1.486;2022-11-06T08:14:38;8.52;;;4.70;;
54561;SDS011;40456;53.358;-1.486;2022-11-06T08:17:04;10.55;;;5.20;;
54561;SDS011;40456;53.358;-1.486;2022-11-06T08:19:29;9.15;;;4.85;;
54561;SDS011;40456;53.358;-1.486;2022-11-06T08:21:55;10.05;;;5.30;;
54561;SDS011;40456;53.358;-1.486;2022-11-06T08:24:21;8.85;;;4.47;;
54561;SDS011;40456;53.358;-1.486;2022-11-06T08:26:46;8.60;;;4.72;;
54561;SDS011;40456;53.358;-1.486;2022-11-06T08:29:11;10.73;;;5.18;;
54561;SDS011;40456;53.358;-1.486;2022-11-06T08:31:37;10.45;;;5.82;;
54561;SDS011;40456;53.358;-1.486;2022-11-06T08:34:02;11.32;;;5.32;;
54561;SDS011;40456;53.358;-1.486;2022-11-06T08:36:28;10.10;;;5.10;;
54561;SDS011;40456;53.358;-1.486;2022-11-06T08:38:53;11.02;;;5.78;;
54561;SDS011;40456;53.358;-1.486;2022-11-06T08:41:19;10.38;;;5.22;;
54561;SDS011;40456;53.358;-1.486;2022-11-06T08:43:49;9.35;;;5.57;;
54561;SDS011;40456;53.358;-1.486;2022-11-06T08:46:15;13.60;;;5.35;;
54561;SDS011;40456;53.358;-1.486;2022-11-06T08:48:40;8.88;;;5.32;;
54561;SDS011;40456;53.358;-1.486;2022-11-06T08:51:06;9.85;;;5.15;;
54561;SDS011;40456;53.358;-1.486;2022-11-06T08:53:31;10.15;;;4.88;;
54561;SDS011;40456;53.358;-1.486;2022-11-06T08:55:57;9.80;;;5.00;;
54561;SDS011;40456;53.358;-1.486;2022-11-06T08:58:22;8.45;;;4.57;;
54561;SDS011;40456;53.358;-1.486;2022-11-06T09:00:47;6.45;;;4.75;;
54561;SDS011;40456;53.358;-1.486;2022-11-06T09:03:14;8.35;;;4.65;;
54561;SDS011;40456;53.358;-1.486;2022-11-06T09:05:40;7.35;;;4.35;;
54561;SDS011;40456;53.358;-1.486;2022-11-06T09:08:07;10.80;;;5.03;;
54561;SDS011;40456;53.358;-1.486;2022-11-06T09:10:33;6.07;;;4.03;;
54561;SDS011;40456;53.358;-1.486;2022-11-06T09:12:58;9.27;;;4.15;;
54561;SDS011;40456;53.358;-1.486;2022-11-06T09:15:24;9.88;;;4.85;;
54561;SDS011;40456;53.358;-1.486;2022-11-06T09:17:50;7.75;;;4.38;;
54561;SDS011;40456;53.358;-1.486;2022-11-06T09:20:17;9.77;;;4.07;;
54561;SDS011;40456;53.358;-1.486;2022-11-06T09:22:43;6.50;;;4.20;;
54561;SDS011;40456;53.358;-1.486;2022-11-06T09:25:09;9.90;;;4.50;;
54561;SDS011;40456;53.358;-1.486;2022-11-06T09:27:48;9.75;;;4.10;;
54561;SDS011;40456;53.358;-1.486;2022-11-06T09:30:15;5.28;;;3.38;;
54561;SDS011;40456;53.358;-1.486;2022-11-06T09:32:45;6.32;;;3.28;;
54561;SDS011;40456;53.358;-1.486;2022-11-06T09:35:12;6.18;;;4.05;;
54561;SDS011;40456;53.358;-1.486;2022-11-06T09:37:37;7.82;;;3.88;;
54561;SDS011;40456;53.358;-1.486;2022-11-06T09:40:03;8.55;;;3.28;;
54561;SDS011;40456;53.358;-1.486;2022-11-06T09:45:18;5.45;;;3.65;;
54561;SDS011;40456;53.358;-1.486;2022-11-06T09:47:49;6.25;;;3.72;;
54561;SDS011;40456;53.358;-1.486;2022-11-06T09:50:39;6.68;;;3.20;;
54561;SDS011;40456;53.358;-1.486;2022-11-06T09:53:14;6.80;;;3.53;;
54561;SDS011;40456;53.358;-1.486;2022-11-06T09:55:43;7.57;;;3.58;;
54561;SDS011;40456;53.358;-1.486;2022-11-06T09:58:53;5.75;;;3.67;;
54561;SDS011;40456;53.358;-1.486;2022-11-06T10:01:15;6.63;;;3.38;;
54561;SDS011;40456;53.358;-1.486;2022-11-06T10:03:51;7.93;;;3.63;;
54561;SDS011;40456;53.358;-1.486;2022-11-06T10:06:21;6.38;;;3.58;;
54561;SDS011;40456;53.358;-1.486;2022-11-06T10:08:47;4.80;;;3.10;;
54561;SDS011;40456;53.358;-1.486;2022-11-06T10:19:37;8.68;;;3.50;;
54561;SDS011;40456;53.358;-1.486;2022-11-06T10:22:15;4.95;;;2.90;;
54561;SDS011;40456;53.358;-1.486;2022-11-06T10:24:46;6.53;;;3.03;;
54561;SDS011;40456;53.358;-1.486;2022-11-06T10:27:17;4.80;;;3.15;;
54561;SDS011;40456;53.358;-1.486;2022-11-06T10:32:35;6.63;;;2.70;;
54561;SDS011;40456;53.358;-1.486;2022-11-06T10:37:57;5.53;;;2.80;;
54561;SDS011;40456;53.358;-1.486;2022-11-06T10:40:28;7.53;;;2.45;;
54561;SDS011;40456;53.358;-1.486;2022-11-06T10:46:11;6.75;;;3.00;;
54561;SDS011;40456;53.358;-1.486;2022-11-06T10:48:45;5.40;;;2.42;;
54561;SDS011;40456;53.358;-1.486;2022-11-06T10:54:06;5.78;;;2.45;;
54561;SDS011;40456;53.358;-1.486;2022-11-06T10:59:22;5.03;;;2.40;;
54561;SDS011;40456;53.358;-1.486;2022-11-06T11:01:48;5.05;;;2.20;;
54561;SDS011;40456;53.358;-1.486;2022-11-06T11:04:13;6.05;;;2.58;;
54561;SDS011;40456;53.358;-1.486;2022-11-06T11:06:39;8.95;;;2.58;;
54561;SDS011;40456;53.358;-1.486;2022-11-06T11:11:50;4.65;;;2.50;;
54561;SDS011;40456;53.358;-1.486;2022-11-06T11:14:23;3.45;;;2.05;;
54561;SDS011;40456;53.358;-1.486;2022-11-06T11:16:50;5.95;;;2.85;;
54561;SDS011;40456;53.358;-1.486;2022-11-06T11:21:57;8.63;;;2.88;;
54561;SDS011;40456;53.358;-1.486;2022-11-06T11:24:24;7.78;;;2.60;;
54561;SDS011;40456;53.358;-1.486;2022-11-06T11:26:51;5.35;;;2.28;;
54561;SDS011;40456;53.358;-1.486;2022-11-06T11:29:21;6.55;;;2.47;;
54561;SDS011;40456;53.358;-1.486;2022-11-06T11:32:02;6.05;;;3.00;;
54561;SDS011;40456;53.358;-1.486;2022-11-06T11:34:30;4.18;;;2.50;;
54561;SDS011;40456;53.358;-1.486;2022-11-06T11:36:58;4.45;;;2.40;;
54561;SDS011;40456;53.358;-1.486;2022-11-06T11:39:28;4.40;;;2.17;;
54561;SDS011;40456;53.358;-1.486;2022-11-06T11:44:45;4.55;;;2.30;;
54561;SDS011;40456;53.358;-1.486;2022-11-06T11:47:21;5.82;;;2.25;;
54561;SDS011;40456;53.358;-1.486;2022-11-06T11:49:47;5.43;;;2.00;;
54561;SDS011;40456;53.358;-1.486;2022-11-06T11:52:15;3.30;;;1.98;;
54561;SDS011;40456;53.358;-1.486;2022-11-06T11:54:45;4.00;;;1.98;;
54561;SDS011;40456;53.358;-1.486;2022-11-06T11:57:23;5.00;;;2.03;;
54561;SDS011;40456;53.358;-1.486;2022-11-06T11:59:53;3.42;;;1.80;;
54561;SDS011;40456;53.358;-1.486;2022-11-06T12:04:57;3.80;;;1.90;;
54561;SDS011;40456;53.358;-1.486;2022-11-06T12:07:31;3.95;;;1.73;;
54561;SDS011;40456;53.358;-1.486;2022-11-06T12:09:59;5.22;;;1.83;;
54561;SDS011;40456;53.358;-1.486;2022-11-06T12:12:31;3.58;;;1.95;;
54561;SDS011;40456;53.358;-1.486;2022-11-06T12:15:05;5.10;;;2.22;;
54561;SDS011;40456;53.358;-1.486;2022-11-06T12:17:41;1.73;;;1.52;;
54561;SDS011;40456;53.358;-1.486;2022-11-06T12:20:13;2.85;;;1.55;;
54561;SDS011;40456;53.358;-1.486;2022-11-06T12:22:43;3.88;;;1.85;;
54561;SDS011;40456;53.358;-1.486;2022-11-06T12:28:00;3.28;;;1.83;;
54561;SDS011;40456;53.358;-1.486;2022-11-06T12:30:27;3.55;;;1.73;;
54561;SDS011;40456;53.358;-1.486;2022-11-06T12:33:05;5.57;;;2.55;;
54561;SDS011;40456;53.358;-1.486;2022-11-06T12:35:52;5.15;;;1.98;;
54561;SDS011;40456;53.358;-1.486;2022-11-06T12:43:53;3.67;;;1.80;;
54561;SDS011;40456;53.358;-1.486;2022-11-06T12:54:23;4.53;;;1.95;;
54561;SDS011;40456;53.358;-1.486;2022-11-06T13:05:05;4.13;;;1.85;;
54561;SDS011;40456;53.358;-1.486;2022-11-06T13:10:53;3.67;;;1.88;;
54561;SDS011;40456;53.358;-1.486;2022-11-06T13:16:20;2.88;;;1.73;;
54561;SDS011;40456;53.358;-1.486;2022-11-06T13:22:08;4.47;;;2.13;;
54561;SDS011;40456;53.358;-1.486;2022-11-06T13:24:50;1.50;;;1.40;;
54561;SDS011;40456;53.358;-1.486;2022-11-06T13:27:40;4.20;;;1.90;;
54561;SDS011;40456;53.358;-1.486;2022-11-06T13:30:21;4.03;;;1.65;;
54561;SDS011;40456;53.358;-1.486;2022-11-06T13:33:10;4.18;;;1.83;;
54561;SDS011;40456;53.358;-1.486;2022-11-06T13:35:37;2.28;;;1.58;;
54561;SDS011;40456;53.358;-1.486;2022-11-06T13:38:07;3.65;;;2.08;;
54561;SDS011;40456;53.358;-1.486;2022-11-06T13:40:40;4.07;;;1.83;;
54561;SDS011;40456;53.358;-1.486;2022-11-06T13:43:18;3.63;;;1.60;;
54561;SDS011;40456;53.358;-1.486;2022-11-06T13:46:01;4.78;;;1.80;;
54561;SDS011;40456;53.358;-1.486;2022-11-06T13:56:49;6.75;;;1.65;;
54561;SDS011;40456;53.358;-1.486;2022-11-06T14:09:03;4.20;;;1.67;;
54561;SDS011;40456;53.358;-1.486;2022-11-06T14:11:24;4.60;;;1.40;;
54561;SDS011;40456;53.358;-1.486;2022-11-06T14:13:55;3.60;;;1.55;;
54561;SDS011;40456;53.358;-1.486;2022-11-06T14:16:31;3.25;;;1.67;;
54561;SDS011;40456;53.358;-1.486;2022-11-06T14:18:59;4.75;;;1.98;;
54561;SDS011;40456;53.358;-1.486;2022-11-06T14:21:42;3.33;;;1.98;;
54561;SDS011;40456;53.358;-1.486;2022-11-06T14:26:47;2.50;;;1.40;;
54561;SDS011;40456;53.358;-1.486;2022-11-06T14:31:58;3.28;;;1.70;;
54561;SDS011;40456;53.358;-1.486;2022-11-06T14:34:35;3.58;;;1.77;;
54561;SDS011;40456;53.358;-1.486;2022-11-06T14:44:48;2.33;;;1.38;;
54561;SDS011;40456;53.358;-1.486;2022-11-06T14:47:19;5.35;;;1.65;;
54561;SDS011;40456;53.358;-1.486;2022-11-06T14:49:48;4.72;;;1.60;;
54561;SDS011;40456;53.358;-1.486;2022-11-06T14:52:17;3.13;;;1.65;;
54561;SDS011;40456;53.358;-1.486;2022-11-06T14:54:54;2.40;;;1.70;;
54561;SDS011;40456;53.358;-1.486;2022-11-06T14:57:37;2.10;;;1.52;;
54561;SDS011;40456;53.358;-1.486;2022-11-06T15:02:32;2.22;;;1.17;;
54561;SDS011;40456;53.358;-1.486;2022-11-06T15:05:04;1.67;;;1.40;;
54561;SDS011;40456;53.358;-1.486;2022-11-06T15:13:10;4.80;;;1.70;;
54561;SDS011;40456;53.358;-1.486;2022-11-06T15:15:41;2.30;;;1.40;;
54561;SDS011;40456;53.358;-1.486;2022-11-06T15:18:14;1.95;;;1.45;;
54561;SDS011;40456;53.358;-1.486;2022-11-06T15:20:47;2.88;;;1.50;;
54561;SDS011;40456;53.358;-1.486;2022-11-06T15:26:28;4.40;;;1.67;;
54561;SDS011;40456;53.358;-1.486;2022-11-06T15:31:23;1.67;;;1.35;;
54561;SDS011;40456;53.358;-1.486;2022-11-06T15:34:02;1.88;;;1.55;;
54561;SDS011;40456;53.358;-1.486;2022-11-06T15:36:37;3.05;;;1.90;;
54561;SDS011;40456;53.358;-1.486;2022-11-06T15:39:20;2.60;;;1.52;;
54561;SDS011;40456;53.358;-1.486;2022-11-06T15:42:07;1.88;;;1.25;;
54561;SDS011;40456;53.358;-1.486;2022-11-06T15:44:36;3.38;;;1.50;;
54561;SDS011;40456;53.358;-1.486;2022-11-06T15:47:03;3.88;;;1.63;;
54561;SDS011;40456;53.358;-1.486;2022-11-06T15:49:29;2.58;;;1.88;;
54561;SDS011;40456;53.358;-1.486;2022-11-06T15:52:00;2.80;;;1.85;;
54561;SDS011;40456;53.358;-1.486;2022-11-06T15:54:31;6.10;;;1.83;;
54561;SDS011;40456;53.358;-1.486;2022-11-06T15:56:57;3.58;;;1.58;;
54561;SDS011;40456;53.358;-1.486;2022-11-06T15:59:24;4.05;;;1.52;;
54561;SDS011;40456;53.358;-1.486;2022-11-06T16:01:50;4.38;;;2.25;;
54561;SDS011;40456;53.358;-1.486;2022-11-06T16:04:20;2.40;;;1.38;;
54561;SDS011;40456;53.358;-1.486;2022-11-06T16:06:47;3.30;;;1.90;;
54561;SDS011;40456;53.358;-1.486;2022-11-06T16:09:16;2.60;;;1.70;;
54561;SDS011;40456;53.358;-1.486;2022-11-06T16:11:43;3.95;;;1.90;;
54561;SDS011;40456;53.358;-1.486;2022-11-06T16:14:11;3.42;;;2.28;;
54561;SDS011;40456;53.358;-1.486;2022-11-06T16:16:43;3.88;;;2.22;;
54561;SDS011;40456;53.358;-1.486;2022-11-06T16:19:43;2.63;;;1.75;;
54561;SDS011;40456;53.358;-1.486;2022-11-06T16:22:06;2.95;;;1.67;;
54561;SDS011;40456;53.358;-1.486;2022-11-06T16:24:44;2.83;;;1.75;;
54561;SDS011;40456;53.358;-1.486;2022-11-06T16:27:11;3.55;;;1.73;;
54561;SDS011;40456;53.358;-1.486;2022-11-06T16:29:38;2.92;;;1.52;;
54561;SDS011;40456;53.358;-1.486;2022-11-06T16:32:05;2.65;;;1.85;;
54561;SDS011;40456;53.358;-1.486;2022-11-06T16:34:35;2.83;;;1.67;;
54561;SDS011;40456;53.358;-1.486;2022-11-06T16:41:58;2.67;;;1.80;;
54561;SDS011;40456;53.358;-1.486;2022-11-06T16:49:35;4.68;;;2.03;;
54561;SDS011;40456;53.358;-1.486;2022-11-06T16:52:14;3.53;;;2.05;;
54561;SDS011;40456;53.358;-1.486;2022-11-06T16:54:49;3.90;;;2.17;;
54561;SDS011;40456;53.358;-1.486;2022-11-06T16:57:25;2.65;;;1.67;;
54561;SDS011;40456;53.358;-1.486;2022-11-06T16:59:53;4.07;;;2.10;;
54561;SDS011;40456;53.358;-1.486;2022-11-06T17:02:34;3.45;;;2.15;;
54561;SDS011;40456;53.358;-1.486;2022-11-06T17:05:11;3.03;;;1.92;;
54561;SDS011;40456;53.358;-1.486;2022-11-06T17:07:39;3.58;;;1.88;;
54561;SDS011;40456;53.358;-1.486;2022-11-06T17:10:24;5.07;;;2.35;;
54561;SDS011;40456;53.358;-1.486;2022-11-06T17:13:15;3.58;;;2.00;;
54561;SDS011;40456;53.358;-1.486;2022-11-06T17:15:42;4.57;;;2.15;;
54561;SDS011;40456;53.358;-1.486;2022-11-06T17:18:13;4.05;;;1.90;;
54561;SDS011;40456;53.358;-1.486;2022-11-06T17:20:50;2.47;;;1.45;;
54561;SDS011;40456;53.358;-1.486;2022-11-06T17:23:20;1.90;;;1.58;;
54561;SDS011;40456;53.358;-1.486;2022-11-06T17:25:46;1.63;;;1.40;;